Latest Weather Observations for Centre Island

IDD60801

Issued at 6:01 am CST Saturday 24 June 2017 (issued every 30 minutes, with the page automatically refreshed every 10 minutes)

About weather observations | Map of weather stations | Latest weather observations for NT | Other Formats
Station Details ID: 014703 Name: CENTRE ISLAND Lat: -15.74 Lon: 136.82 Height: 12.2 m
Data from the previous 72 hours. | See also: Recent months at Centre Island
Date/Time
CST
Temp
°C
App
Temp
°C
Dew
Point
°C
Rel
Hum
%
Delta-T
°C
Wind Press
QNH
hPa
Press
MSL
hPa
Rain since
9am
mm
Dir  Spd
km/h
Gust
km/h
Spd
kts
Gust
kts
24/06:00am 20.5 20.5 19.7 95 0.5 SSE 19 20 10 11 1013.5 1013.5 0.2
24/05:30am 20.6 21.0 19.9 96 0.4 SSE 17 19 9 10 1013.3 1013.3 0.2
24/05:00am 20.7 21.9 20.0 96 0.4 SSE 13 17 7 9 1013.3 1013.3 0.0
24/04:30am 20.8 21.7 20.0 95 0.5 SSE 15 17 8 9 1013.1 1013.1 0.0
24/04:00am 21.0 22.0 20.2 95 0.5 SSE 15 17 8 9 1013.2 1013.2 0.0
24/03:30am 21.1 22.5 20.3 95 0.5 S 13 15 7 8 1013.5 1013.5 0.0
24/03:00am 21.2 23.0 20.4 95 0.5 S 11 13 6 7 1013.8 1013.8 0.0
24/02:30am 21.4 23.6 20.4 94 0.6 SSE 9 11 5 6 1013.9 1013.9 0.0
24/02:00am 21.6 23.9 20.6 94 0.6 SSE 9 11 5 6 1014.2 1014.2 0.0
24/01:30am 21.3 23.4 20.1 93 0.8 SE 9 11 5 6 1014.4 1014.4 0.0
24/01:00am 21.3 23.4 20.1 93 0.8 ESE 9 9 5 5 1014.6 1014.6 0.0
24/12:30am 21.3 23.4 20.1 93 0.8 ESE 9 11 5 6 1014.8 1014.8 0.0
24/12:00am 21.5 23.3 20.3 93 0.8 ESE 11 13 6 7 1014.8 1014.8 0.0
 
Date/Time
CST
Temp
°C
App
Temp
°C
Dew
Point
°C
Rel
Hum
%
Delta-T
°C
Wind Press
QNH
hPa
Press
MSL
hPa
Rain since
9am
mm
Dir  Spd
km/h
Gust
km/h
Spd
kts
Gust
kts
23/11:30pm 21.4 23.4 20.0 92 0.9 E 9 9 5 5 1015.0 1015.0 0.0
23/11:00pm 21.6 23.7 20.1 91 1.0 E 9 9 5 5 1015.3 1015.3 0.0
23/10:30pm 21.8 23.6 20.3 91 1.0 E 11 11 6 6 1015.4 1015.4 0.0
23/10:00pm 21.9 24.0 20.2 90 1.1 E 9 11 5 6 1015.4 1015.4 0.0
23/09:30pm 22.0 24.0 19.9 88 1.3 E 9 11 5 6 1015.4 1015.4 0.0
23/09:00pm 22.3 23.9 20.0 87 1.5 E 11 13 6 7 1015.2 1015.2 0.0
23/08:30pm 22.5 24.1 20.0 86 1.6 ENE 11 13 6 7 1014.8 1014.8 0.0
23/08:00pm 22.7 23.9 20.0 85 1.7 ENE 13 15 7 8 1014.5 1014.5 0.0
23/07:30pm 22.9 24.2 20.2 85 1.7 ENE 13 17 7 9 1014.2 1014.2 0.0
23/07:00pm 23.1 24.2 20.4 85 1.8 ENE 15 17 8 9 1013.9 1013.9 0.0
23/06:30pm 23.4 24.5 20.5 84 1.9 ENE 15 19 8 10 1013.6 1013.6 0.0
23/06:00pm 23.7 24.8 20.4 82 2.1 ENE 15 19 8 10 1013.4 1013.4 0.0
23/05:30pm 24.5 24.7 20.2 77 2.8 ENE 19 22 10 12 1013.1 1013.1 0.0
23/05:00pm 25.3 26.4 20.5 75 3.1 ENE 15 19 8 10 1013.1 1013.1 0.0
23/04:30pm 26.1 26.4 19.7 68 4.1 ENE 17 22 9 12 1012.9 1012.9 0.0
23/04:00pm 26.4 26.7 19.5 66 4.5 ENE 17 19 9 10 1013.1 1013.1 0.0
23/03:30pm 26.3 26.9 19.4 66 4.5 E 15 19 8 10 1013.4 1013.4 0.0
23/03:00pm 27.3 27.2 19.6 62 5.0 ENE 19 22 10 12 1013.6 1013.6 0.0
23/02:30pm 25.7 27.1 20.3 72 3.5 E 13 17 7 9 1013.8 1013.8 0.0
23/02:00pm 26.5 26.6 19.9 67 4.3 E 19 22 10 12 1014.0 1014.0 0.0
23/01:30pm 25.8 25.2 19.7 69 3.9 ESE 22 24 12 13 1014.5 1014.5 0.0
23/01:00pm 25.7 24.4 19.1 67 4.2 ESE 24 28 13 15 1014.9 1014.9 0.0
23/12:30pm 25.2 23.3 18.6 67 4.2 ESE 26 30 14 16 1015.5 1015.5 0.0
23/12:00pm 25.0 22.5 18.0 65 4.4 ESE 28 32 15 17 1015.9 1015.9 0.0
23/11:30am 25.1 22.1 17.8 64 4.6 ESE 30 33 16 18 1016.3 1016.3 0.0
23/11:00am 24.9 21.1 17.1 62 4.8 ESE 33 39 18 21 1016.5 1016.5 0.0
23/10:30am 24.6 19.5 16.8 62 4.8 ESE 39 44 21 24 1016.6 1016.6 0.0
23/10:12am 24.5 20.2 16.0 59 5.2 ESE 33 48 18 26 1016.6 1016.6 0.0
23/10:00am 24.8 22.8 17.5 64 4.6 ESE 24 28 13 15 1016.5 1016.5 0.0
23/09:30am 24.0 22.4 17.5 67 4.0 ESE 22 26 12 14 1016.5 1016.5 0.0
23/09:00am 23.1 21.8 18.2 74 3.1 SE 22 26 12 14 1016.3 1016.3 0.4
23/08:30am 22.2 20.9 18.2 78 2.5 SE 22 24 12 13 1016.2 1016.2 0.4
23/08:00am 21.5 20.7 18.5 83 1.9 SE 20 24 11 13 1015.9 1015.9 0.2
23/07:30am 20.8 20.1 18.7 88 1.3 SE 20 26 11 14 1015.6 1015.6 0.2
23/07:00am 20.5 20.2 19.2 92 0.8 SSE 19 24 10 13 1015.4 1015.4 0.2
23/06:30am 20.3 19.8 19.1 93 0.8 SSE 20 24 11 13 1015.3 1015.3 0.2
23/06:00am 20.5 20.5 19.7 95 0.5 SSE 19 22 10 12 1015.1 1015.1 0.2
23/05:30am 20.6 21.0 19.9 96 0.4 S 17 20 9 11 1015.0 1015.0 0.2
23/05:00am 20.7 21.6 20.0 96 0.4 S 15 17 8 9 1015.0 1015.0 0.2
23/04:30am 20.8 21.7 20.1 96 0.4 SSW 15 17 8 9 1014.9 1014.9 0.2
23/04:00am 21.1 22.6 20.6 97 0.3 S 13 15 7 8 1015.1 1015.1 0.2
23/03:30am 21.4 23.9 21.1 98 0.2 SSW 9 11 5 6 1015.2 1015.2 0.0
23/03:00am 21.1 23.8 20.6 97 0.3 SSW 7 9 4 5 1015.4 1015.4 0.0
23/02:30am 21.1 23.9 20.4 96 0.5 S 6 7 3 4 1015.5 1015.5 0.0
23/02:00am 21.2 24.0 20.5 96 0.5 ESE 6 6 3 3 1015.6 1015.6 0.0
23/01:30am 21.2 23.8 20.5 96 0.5 E 7 7 4 4 1015.8 1015.8 0.0
23/01:00am 21.4 24.1 20.7 96 0.5 E 7 11 4 6 1016.2 1016.2 0.0
23/12:30am 21.6 24.0 20.9 96 0.5 ESE 9 11 5 6 1016.5 1016.5 0.0
23/12:00am 21.7 23.4 21.0 96 0.5 ESE 13 13 7 7 1016.6 1016.6 0.0
 
Date/Time
CST
Temp
°C
App
Temp
°C
Dew
Point
°C
Rel
Hum
%
Delta-T
°C
Wind Press
QNH
hPa
Press
MSL
hPa
Rain since
9am
mm
Dir  Spd
km/h
Gust
km/h
Spd
kts
Gust
kts
22/11:30pm 21.8 23.6 21.1 96 0.5 ESE 13 15 7 8 1016.7 1016.7 0.0
22/11:00pm 21.9 23.7 21.1 95 0.5 ESE 13 15 7 8 1016.8 1016.8 0.0
22/10:30pm 21.9 23.7 21.1 95 0.5 ESE 13 15 7 8 1016.9 1016.9 0.0
22/10:00pm 22.0 23.7 21.0 94 0.7 ESE 13 15 7 8 1016.9 1016.9 0.0
22/09:30pm 22.0 24.3 20.6 92 0.9 ESE 9 11 5 6 1016.8 1016.8 0.0
22/09:00pm 22.2 24.5 20.7 91 1.0 E 9 13 5 7 1016.7 1016.7 0.0
22/08:30pm 22.3 24.7 20.8 91 1.0 ENE 9 13 5 7 1016.4 1016.4 0.0
22/08:00pm 22.5 24.5 20.8 90 1.1 E 11 13 6 7 1016.2 1016.2 0.0
22/07:30pm 22.8 24.1 20.9 89 1.2 E 15 17 8 9 1015.8 1015.8 0.0
22/07:00pm 22.9 24.2 20.8 88 1.4 E 15 17 8 9 1015.5 1015.5 0.0
22/06:30pm 23.0 25.3 20.7 87 1.5 E 9 11 5 6 1015.3 1015.3 0.0
22/06:00pm 23.5 24.8 20.8 85 1.8 ESE 15 19 8 10 1015.1 1015.1 0.0
22/05:30pm 24.3 25.2 20.8 81 2.3 E 17 19 9 10 1014.8 1014.8 0.0
22/05:00pm 24.5 25.8 20.8 80 2.4 ESE 15 19 8 10 1014.5 1014.5 0.0
22/04:30pm 24.4 24.8 20.7 80 2.4 ESE 19 22 10 12 1014.4 1014.4 0.0
22/04:00pm 25.0 24.5 20.7 77 2.8 SE 24 28 13 15 1014.3 1014.3 0.0
22/03:30pm 25.4 25.4 20.2 73 3.4 SE 20 24 11 13 1014.2 1014.2 0.0
22/03:00pm 25.7 25.6 20.0 71 3.7 SE 20 24 11 13 1014.2 1014.2 0.0
22/02:30pm 25.4 24.7 19.5 70 3.8 SE 22 26 12 14 1014.3 1014.3 0.0
22/02:00pm 25.5 25.1 19.4 69 3.9 SE 20 24 11 13 1014.5 1014.5 0.0
22/01:30pm 25.4 25.5 19.1 68 4.0 SE 17 20 9 11 1014.9 1014.9 0.0
22/01:00pm 25.3 24.8 18.7 67 4.2 SE 19 20 10 11 1015.2 1015.2 0.0
22/12:30pm 25.2 24.3 18.2 65 4.4 ESE 20 24 11 13 1015.6 1015.6 0.0
22/12:00pm 24.8 23.6 17.5 64 4.5 ESE 20 24 11 13 1015.8 1015.8 0.0
22/11:30am 24.8 23.6 17.0 62 4.8 SE 19 20 10 11 1016.3 1016.3 0.0
22/11:00am 24.4 24.3 15.9 59 5.2 SE 11 15 6 8 1016.4 1016.4 0.0
22/10:30am 24.0 22.8 15.0 57 5.4 ESE 15 20 8 11 1016.9 1016.9 0.0
22/10:00am 23.5 21.3 14.5 57 5.3 SE 19 22 10 12 1016.9 1016.9 0.0
22/09:30am 22.6 21.5 14.4 60 4.8 SE 13 15 7 8 1017.0 1017.0 0.0
22/09:00am 21.7 20.6 15.3 67 3.8 SSE 15 17 8 9 1017.1 1017.1 0.4
22/08:30am 21.0 20.3 15.3 70 3.4 SSE 13 17 7 9 1016.9 1016.9 0.4
22/08:00am 20.3 18.9 15.5 74 2.8 S 17 20 9 11 1016.6 1016.6 0.4
22/07:30am 19.5 18.8 16.5 83 1.8 S 15 19 8 10 1016.1 1016.1 0.4
22/07:00am 19.3 18.8 16.9 86 1.5 S 15 17 8 9 1015.8 1015.8 0.4
22/06:30am 19.6 19.7 17.4 87 1.3 SSE 13 15 7 8 1015.7 1015.7 0.4
22/06:00am 19.1 19.7 16.9 87 1.3 S 9 11 5 6 1015.3 1015.3 0.4
22/05:30am 19.1 19.9 17.2 89 1.2 S 9 11 5 6 1015.3 1015.3 0.4
22/05:00am 19.4 20.2 18.1 92 0.8 SSE 11 13 6 7 1015.2 1015.2 0.4
22/04:30am 19.6 20.2 18.6 94 0.6 SSE 13 15 7 8 1015.1 1015.1 0.4
22/04:00am 19.8 20.2 19.0 95 0.5 SSE 15 17 8 9 1015.2 1015.2 0.2
22/03:30am 20.1 20.3 19.3 95 0.5 S 17 19 9 10 1015.0 1015.0 0.2
22/03:00am 20.7 21.6 20.0 96 0.4 SSE 15 17 8 9 1015.1 1015.1 0.2
22/02:30am 21.0 22.9 20.5 97 0.3 SE 11 13 6 7 1015.3 1015.3 0.2
22/02:00am 21.0 22.8 20.3 96 0.5 ESE 11 13 6 7 1015.5 1015.5 0.2
22/01:30am 21.1 22.5 20.4 96 0.5 E 13 15 7 8 1015.6 1015.6 0.2
22/01:00am 21.2 22.3 20.5 96 0.5 E 15 17 8 9 1016.0 1016.0 0.2
22/12:30am 21.2 21.9 20.5 96 0.5 ESE 17 19 9 10 1016.1 1016.1 0.2
22/12:00am 21.4 21.8 20.7 96 0.5 ESE 19 22 10 12 1016.4 1016.4 0.2
 
Date/Time
CST
Temp
°C
App
Temp
°C
Dew
Point
°C
Rel
Hum
%
Delta-T
°C
Wind Press
QNH
hPa
Press
MSL
hPa
Rain since
9am
mm
Dir  Spd
km/h
Gust
km/h
Spd
kts
Gust
kts
21/11:30pm 21.5 22.0 20.8 96 0.5 ESE 19 20 10 11 1016.5 1016.5 0.2
21/11:00pm 21.4 21.6 20.6 95 0.5 ESE 20 22 11 12 1016.6 1016.6 0.2
21/10:30pm 21.4 22.1 20.4 94 0.6 ESE 17 19 9 10 1016.9 1016.9 0.2
21/10:00pm 21.5 22.1 20.3 93 0.8 E 17 19 9 10 1016.8 1016.8 0.2
21/09:30pm 21.5 22.0 20.0 91 1.0 E 17 19 9 10 1016.5 1016.5 0.2
21/09:00pm 21.6 21.7 19.9 90 1.1 E 19 22 10 12 1016.3 1016.3 0.2
21/08:30pm 21.7 21.4 19.6 88 1.3 E 20 24 11 13 1016.0 1016.0 0.2
21/08:00pm 22.0 21.5 19.0 83 1.9 E 20 24 11 13 1015.8 1015.8 0.2
21/07:30pm 22.1 21.1 17.9 77 2.6 E 20 24 11 13 1015.4 1015.4 0.2
21/07:00pm 22.2 21.3 17.8 76 2.7 E 19 24 10 13 1015.0 1015.0 0.2
21/06:30pm 22.8 21.9 17.7 73 3.2 ENE 19 20 10 11 1014.5 1014.5 0.2
21/06:00pm 23.4 21.7 17.2 68 3.8 ENE 22 26 12 14 1014.3 1014.3 0.2
21/05:30pm 24.2 22.3 16.7 63 4.6 E 22 26 12 14 1014.1 1014.1 0.2
21/05:00pm 24.9 23.3 16.6 60 5.1 E 20 24 11 13 1013.9 1013.9 0.2
21/04:30pm 25.4 23.8 16.5 58 5.5 E 20 24 11 13 1013.8 1013.8 0.2
21/04:00pm 26.1 24.0 16.1 54 6.1 E 22 26 12 14 1013.8 1013.8 0.2
21/03:30pm 26.1 24.6 16.4 55 6.0 E 19 22 10 12 1013.9 1013.9 0.2
21/03:00pm 25.8 23.9 16.6 56 5.7 E 22 26 12 14 1014.1 1014.1 0.2
21/02:30pm 26.6 23.1 14.4 47 7.3 E 26 32 14 17 1014.2 1014.2 0.2
21/02:00pm 26.7 22.5 13.4 43 7.8 E 28 35 15 19 1014.4 1014.4 0.2
21/01:30pm 26.4 23.2 14.2 47 7.3 ESE 24 28 13 15 1014.8 1014.8 0.2
21/01:00pm 26.3 22.7 13.1 44 7.7 ESE 24 26 13 14 1015.3 1015.3 0.2
21/12:30pm 26.4 22.6 12.5 42 8.0 ESE 24 28 13 15 1015.8 1015.8 0.2
21/12:00pm 26.2 22.7 12.3 42 8.0 ESE 22 28 12 15 1016.3 1016.3 0.2
21/11:30am 25.0 23.0 13.9 50 6.5 E 17 20 9 11 1016.6 1016.6 0.2
21/11:00am 25.1 23.1 13.9 49 6.6 ESE 17 20 9 11 1016.8 1016.8 0.2
21/10:30am 24.4 22.0 13.9 52 6.2 SE 19 22 10 12 1016.9 1016.9 0.2
21/10:00am 23.8 20.7 13.4 52 6.0 SE 22 26 12 14 1017.1 1017.1 0.2
21/09:30am 23.0 20.4 13.8 56 5.4 SE 20 24 11 13 1017.2 1017.2 0.0
21/09:00am 22.1 18.6 13.5 58 5.0 SE 24 28 13 15 1017.2 1017.2 0.0
21/08:30am 21.4 17.6 13.6 61 4.5 SSE 26 30 14 16 1017.0 1017.0 0.0
21/08:00am 21.3 17.9 13.7 62 4.4 SSE 24 33 13 18 1016.7 1016.7 0.0
21/07:30am 20.4 18.1 14.7 70 3.3 SSE 20 24 11 13 1016.5 1016.5 0.0
21/07:00am 20.3 17.6 15.5 74 2.8 SSE 24 28 13 15 1016.2 1016.2 0.0
21/06:30am 20.6 17.8 15.4 72 3.1 SE 24 28 13 15 1015.8 1015.8 0.0

Other Formats:

Comma delimited format used in spreadsheet applications
http://www.bom.gov.au/fwo/IDD60801/IDD60801.94248.axf

JavaScript Object Notation format (JSON) in row-major order
http://www.bom.gov.au/fwo/IDD60801/IDD60801.94248.json